createdAt,value
2017-12-03T00:02:18.221Z,86.73
2017-12-03T00:04:47.286Z,87.93
2017-12-03T00:07:15.598Z,89.30
2017-12-03T00:09:45.389Z,85.80
2017-12-03T00:12:14.590Z,88.53
2017-12-03T00:14:43.714Z,92.33
2017-12-03T00:17:12.960Z,83.13
2017-12-03T00:19:41.268Z,86.03
2017-12-03T00:22:09.659Z,83.03
2017-12-03T00:24:38.745Z,89.33
2017-12-03T00:27:07.068Z,89.73
2017-12-03T00:29:35.366Z,81.07
2017-12-03T00:32:03.676Z,76.00
2017-12-03T00:34:32.070Z,77.43
2017-12-03T00:37:01.155Z,81.20
2017-12-03T00:39:29.484Z,82.73
2017-12-03T00:41:57.805Z,78.90
2017-12-03T00:44:26.132Z,72.07
2017-12-03T00:46:55.218Z,81.43
2017-12-03T00:49:23.552Z,79.83
2017-12-03T00:51:51.861Z,84.17
2017-12-03T00:54:20.169Z,78.83
2017-12-03T00:56:49.235Z,81.23
2017-12-03T00:59:17.578Z,70.10
2017-12-03T01:01:45.900Z,73.90
2017-12-03T01:04:14.220Z,69.20
2017-12-03T01:06:43.300Z,71.47
2017-12-03T01:09:12.383Z,86.80
2017-12-03T01:11:40.698Z,77.63
2017-12-03T01:14:09.833Z,77.80
2017-12-03T01:16:38.136Z,81.40
2017-12-03T01:19:06.468Z,81.20
2017-12-03T01:21:34.794Z,86.90
2017-12-03T01:24:03.902Z,80.00
2017-12-03T01:26:32.233Z,88.00
2017-12-03T01:29:01.153Z,75.23
2017-12-03T01:31:29.464Z,80.00
2017-12-03T01:33:58.568Z,84.83
2017-12-03T01:36:27.653Z,80.83
2017-12-03T01:38:55.948Z,80.17
2017-12-03T01:41:24.268Z,76.93
2017-12-03T01:43:52.589Z,60.30
2017-12-03T01:46:20.944Z,83.07
2017-12-03T01:48:49.259Z,73.70
2017-12-03T01:51:17.585Z,77.43
2017-12-03T01:53:45.978Z,90.40
2017-12-03T01:56:14.285Z,79.23
2017-12-03T01:58:42.597Z,80.77
2017-12-03T02:01:10.928Z,89.53
2017-12-03T02:03:39.356Z,87.80
2017-12-03T02:06:07.836Z,86.73
2017-12-03T02:08:36.180Z,80.07
2017-12-03T02:11:06.041Z,86.77
2017-12-03T02:13:34.350Z,86.63
2017-12-03T02:16:02.662Z,85.00
2017-12-03T02:18:30.976Z,88.07
2017-12-03T02:21:00.046Z,85.50
2017-12-03T02:23:28.362Z,89.37
2017-12-03T02:25:56.708Z,87.17
2017-12-03T02:28:25.042Z,78.70
2017-12-03T02:30:54.111Z,71.17
2017-12-03T02:33:22.438Z,77.73
2017-12-03T02:35:50.769Z,77.50
2017-12-03T02:38:19.105Z,67.00
2017-12-03T02:40:47.408Z,75.17
2017-12-03T02:43:15.720Z,77.13
2017-12-03T02:45:44.815Z,85.50
2017-12-03T02:48:13.187Z,61.87
2017-12-03T02:50:41.492Z,74.07
2017-12-03T02:53:10.580Z,74.37
2017-12-03T02:55:38.901Z,82.40
2017-12-03T02:58:07.232Z,81.63
2017-12-03T03:00:35.614Z,71.53
2017-12-03T03:03:04.200Z,72.27
2017-12-03T03:05:32.514Z,69.63
2017-12-03T03:08:00.836Z,74.87
2017-12-03T03:10:29.166Z,84.80
2017-12-03T03:12:58.336Z,83.57
2017-12-03T03:15:26.650Z,75.80
2017-12-03T03:17:55.786Z,69.50
2017-12-03T03:20:24.872Z,75.77
2017-12-03T03:22:53.186Z,69.97
2017-12-03T03:25:21.520Z,76.93
2017-12-03T03:27:49.840Z,72.37
2017-12-03T03:30:18.155Z,71.43
2017-12-03T03:32:47.337Z,75.87
2017-12-03T03:35:15.656Z,69.13
2017-12-03T03:37:44.737Z,83.20
2017-12-03T03:40:13.056Z,77.50
2017-12-03T03:42:41.362Z,78.90
2017-12-03T03:45:09.678Z,74.60
2017-12-03T03:47:38.029Z,69.50
2017-12-03T03:50:06.346Z,66.60
2017-12-03T03:52:35.562Z,73.67
2017-12-03T03:55:03.873Z,62.73
2017-12-03T03:57:32.190Z,69.47
2017-12-03T04:00:00.492Z,68.27
2017-12-03T04:02:29.735Z,79.73
2017-12-03T04:04:58.062Z,71.87
2017-12-03T04:07:26.384Z,71.97
2017-12-03T04:09:54.700Z,67.47
2017-12-03T04:12:23.054Z,73.10
2017-12-03T04:14:51.376Z,66.73
2017-12-03T04:17:19.674Z,72.73
2017-12-03T04:19:47.984Z,74.10
2017-12-03T04:22:16.311Z,67.03
2017-12-03T04:24:44.667Z,76.50
2017-12-03T04:27:12.972Z,60.00
2017-12-03T04:29:41.292Z,72.83
2017-12-03T04:32:10.369Z,76.47
2017-12-03T04:34:38.687Z,70.17
2017-12-03T04:37:07.018Z,68.30
2017-12-03T04:39:35.454Z,58.53
2017-12-03T04:42:03.786Z,63.37
2017-12-03T04:44:32.096Z,71.13
2017-12-03T04:47:00.409Z,68.60
2017-12-03T04:49:28.729Z,67.07
2017-12-03T04:51:57.825Z,70.57
2017-12-03T04:54:27.647Z,66.77
2017-12-03T04:56:55.963Z,59.17
2017-12-03T04:59:24.301Z,62.57
2017-12-03T05:01:52.709Z,68.03
2017-12-03T05:04:21.802Z,60.10
2017-12-03T05:06:50.875Z,64.03
2017-12-03T05:09:19.419Z,64.83
2017-12-03T05:11:47.742Z,65.43
2017-12-03T05:14:16.051Z,63.40
2017-12-03T05:16:45.138Z,60.50
2017-12-03T05:19:13.458Z,58.30
2017-12-03T05:21:41.889Z,58.57
2017-12-03T05:24:10.209Z,62.33
2017-12-03T05:26:38.537Z,69.07
2017-12-03T05:29:06.856Z,65.37
2017-12-03T05:31:35.932Z,65.27
2017-12-03T05:34:05.019Z,61.93
2017-12-03T05:36:33.339Z,65.53
2017-12-03T05:39:02.430Z,64.97
2017-12-03T05:41:31.508Z,61.03
2017-12-03T05:43:59.808Z,67.77
2017-12-03T05:46:28.147Z,65.97
2017-12-03T05:48:56.445Z,65.83
2017-12-03T05:51:24.764Z,67.03
2017-12-03T05:53:53.086Z,68.23
2017-12-03T05:56:21.383Z,56.87
2017-12-03T05:58:49.678Z,55.67
2017-12-03T06:01:18.083Z,73.77
2017-12-03T06:03:47.228Z,62.30
2017-12-03T06:06:15.540Z,65.67
2017-12-03T06:08:44.040Z,64.40
2017-12-03T06:11:13.265Z,61.53
2017-12-03T06:13:41.566Z,60.80
2017-12-03T06:16:09.867Z,60.43
2017-12-03T06:18:38.177Z,61.73
2017-12-03T06:21:07.267Z,61.63
2017-12-03T06:23:35.587Z,58.43
2017-12-03T06:26:03.893Z,61.03
2017-12-03T06:28:32.211Z,66.40
2017-12-03T06:31:00.535Z,61.70
2017-12-03T06:33:28.841Z,58.90
2017-12-03T06:35:57.152Z,71.10
2017-12-03T06:38:26.243Z,74.70
2017-12-03T06:40:54.552Z,56.67
2017-12-03T06:43:23.619Z,69.97
2017-12-03T06:45:53.440Z,64.00
2017-12-03T06:48:22.521Z,53.27
2017-12-03T06:50:50.835Z,64.60
2017-12-03T06:53:19.908Z,50.17
2017-12-03T06:55:48.215Z,53.63
2017-12-03T06:58:19.147Z,59.63
2017-12-03T07:00:48.233Z,49.57
2017-12-03T07:03:16.557Z,58.00
2017-12-03T07:05:44.910Z,51.50
2017-12-03T07:08:13.993Z,61.80
2017-12-03T07:10:43.860Z,57.77
2017-12-03T07:13:12.178Z,55.10
2017-12-03T07:15:40.523Z,58.33
2017-12-03T07:18:08.848Z,55.93
2017-12-03T07:20:37.924Z,55.73
2017-12-03T07:23:06.394Z,59.43
2017-12-03T07:25:34.685Z,56.13
2017-12-03T07:28:03.009Z,53.40
2017-12-03T07:30:32.093Z,54.03
2017-12-03T07:33:00.415Z,52.23
2017-12-03T07:35:28.756Z,55.23
2017-12-03T07:37:57.079Z,52.10
2017-12-03T07:40:25.383Z,58.17
2017-12-03T07:42:53.708Z,47.47
2017-12-03T07:45:22.129Z,47.60
2017-12-03T07:47:50.513Z,43.27
2017-12-03T07:50:18.813Z,45.60
2017-12-03T07:52:47.111Z,51.00
2017-12-03T07:55:15.419Z,47.33
2017-12-03T07:57:44.499Z,47.10
2017-12-03T08:00:14.322Z,46.37
2017-12-03T08:02:42.707Z,41.77
2017-12-03T08:05:11.781Z,46.60
2017-12-03T08:07:40.120Z,51.63
2017-12-03T08:10:08.463Z,48.03
2017-12-03T08:12:36.793Z,45.53
2017-12-03T08:15:05.103Z,46.50
2017-12-03T08:17:33.439Z,45.63
2017-12-03T08:20:01.745Z,41.60
2017-12-03T08:22:30.062Z,39.60
2017-12-03T08:24:58.413Z,49.80
2017-12-03T08:27:26.733Z,43.67
2017-12-03T08:29:55.049Z,52.20
2017-12-03T08:32:23.343Z,48.73
2017-12-03T08:34:52.486Z,47.67
2017-12-03T08:37:21.133Z,47.40
2017-12-03T08:39:49.445Z,45.37
2017-12-03T08:42:17.808Z,44.73
2017-12-03T08:44:46.219Z,45.40
2017-12-03T08:47:15.261Z,51.40
2017-12-03T08:49:44.543Z,51.20
2017-12-03T08:52:13.647Z,43.30
2017-12-03T08:54:46.903Z,45.73
2017-12-03T08:57:16.095Z,45.87
2017-12-03T08:59:44.409Z,36.47
2017-12-03T09:02:13.537Z,38.90
2017-12-03T09:04:41.861Z,45.50
2017-12-03T09:07:10.180Z,43.07
2017-12-03T09:09:39.261Z,38.50
2017-12-03T09:12:07.645Z,39.43
2017-12-03T09:14:36.804Z,44.80
2017-12-03T09:17:05.119Z,43.30
2017-12-03T09:19:33.429Z,49.13
2017-12-03T09:22:01.741Z,48.83
2017-12-03T09:24:30.044Z,45.70
2017-12-03T09:26:58.353Z,43.97
2017-12-03T09:29:27.417Z,39.27
2017-12-03T09:31:55.750Z,44.20
2017-12-03T09:34:24.073Z,44.60
2017-12-03T09:36:52.369Z,48.37
2017-12-03T09:39:20.709Z,45.30
2017-12-03T09:41:49.015Z,43.70
2017-12-03T09:44:17.385Z,48.10
2017-12-03T09:46:45.743Z,40.37
2017-12-03T09:49:14.094Z,37.40
2017-12-03T09:51:42.395Z,40.77
2017-12-03T09:54:10.718Z,46.30
2017-12-03T09:56:39.039Z,53.43
2017-12-03T09:59:08.455Z,46.27
2017-12-03T10:01:37.535Z,46.63
2017-12-03T10:04:05.843Z,49.67
2017-12-03T10:06:34.232Z,46.67
2017-12-03T10:09:02.531Z,49.57
2017-12-03T10:11:30.843Z,46.97
2017-12-03T10:13:59.149Z,51.97
2017-12-03T10:16:27.519Z,50.87
2017-12-03T10:18:55.868Z,50.97
2017-12-03T10:21:25.725Z,47.33
2017-12-03T10:23:54.033Z,55.60
2017-12-03T10:26:22.360Z,50.30
2017-12-03T10:28:50.773Z,49.30
2017-12-03T10:31:20.597Z,50.00
2017-12-03T10:33:48.930Z,48.30
2017-12-03T10:36:17.245Z,52.63
2017-12-03T10:38:46.381Z,47.90
2017-12-03T10:41:15.487Z,52.00
2017-12-03T10:43:43.805Z,53.70
2017-12-03T10:46:12.115Z,47.03
2017-12-03T10:48:41.217Z,47.47
2017-12-03T10:51:10.322Z,47.27
2017-12-03T10:53:38.666Z,50.97
2017-12-03T10:56:06.989Z,55.43
2017-12-03T10:58:36.479Z,55.40
2017-12-03T11:01:05.087Z,50.60
2017-12-03T11:03:34.239Z,61.03
2017-12-03T11:06:03.075Z,59.80
2017-12-03T11:08:31.932Z,56.27
2017-12-03T11:11:01.701Z,92.47
2017-12-03T11:13:30.729Z,68.23
2017-12-03T11:15:59.155Z,53.07
2017-12-03T11:18:28.372Z,48.33
2017-12-03T11:20:56.730Z,38.60
2017-12-03T11:23:25.025Z,41.83
2017-12-03T11:25:53.412Z,43.30
2017-12-03T11:28:21.765Z,41.87
2017-12-03T11:30:50.957Z,42.27
2017-12-03T11:33:21.646Z,37.30
2017-12-03T11:35:51.044Z,45.93
2017-12-03T11:38:19.380Z,44.53
2017-12-03T11:40:49.205Z,42.63
2017-12-03T11:43:17.565Z,46.67
2017-12-03T11:45:45.912Z,49.50
2017-12-03T11:48:14.232Z,42.13
2017-12-03T11:50:43.306Z,46.30
2017-12-03T11:53:11.611Z,50.37
2017-12-03T11:55:40.694Z,42.33
2017-12-03T11:58:09.011Z,43.37
2017-12-03T12:00:38.150Z,44.77
2017-12-03T12:03:06.849Z,42.97
2017-12-03T12:05:35.170Z,44.53
2017-12-03T12:08:04.244Z,47.10
2017-12-03T12:10:33.321Z,46.37
2017-12-03T12:13:01.755Z,52.50
2017-12-03T12:15:30.114Z,49.40
2017-12-03T12:17:58.449Z,43.80
2017-12-03T12:20:27.082Z,51.57
2017-12-03T12:22:55.434Z,47.67
2017-12-03T12:25:23.757Z,43.17
2017-12-03T12:27:52.888Z,51.33
2017-12-03T12:30:21.996Z,45.30
2017-12-03T12:32:51.064Z,45.10
2017-12-03T12:35:19.430Z,39.77
2017-12-03T12:37:47.760Z,44.37
2017-12-03T12:40:16.108Z,47.27
2017-12-03T12:42:45.237Z,40.50
2017-12-03T12:45:13.588Z,38.33
2017-12-03T12:47:42.048Z,42.47
2017-12-03T12:50:10.352Z,43.80
2017-12-03T12:52:38.717Z,41.97
2017-12-03T12:55:07.049Z,48.83
2017-12-03T12:57:35.372Z,44.70
2017-12-03T13:00:03.702Z,41.53
2017-12-03T13:02:32.202Z,49.60
2017-12-03T13:05:00.523Z,47.17
2017-12-03T13:07:28.942Z,47.33
2017-12-03T13:09:58.056Z,41.70
2017-12-03T13:12:26.410Z,47.43
2017-12-03T13:14:54.763Z,47.13
2017-12-03T13:17:23.084Z,45.40
2017-12-03T13:19:51.404Z,45.73
2017-12-03T13:22:19.723Z,49.50
2017-12-03T13:24:48.062Z,47.60
2017-12-03T13:27:16.361Z,46.27
2017-12-03T13:29:44.688Z,42.03
2017-12-03T13:32:13.014Z,38.50
2017-12-03T13:34:41.390Z,33.37
2017-12-03T13:37:09.828Z,36.10
2017-12-03T13:39:38.260Z,52.93
2017-12-03T13:42:06.588Z,33.47
2017-12-03T13:44:35.728Z,35.63
2017-12-03T13:47:04.078Z,21.93
2017-12-03T13:49:32.410Z,26.47
2017-12-03T13:52:00.760Z,12.70
2017-12-03T13:54:29.844Z,12.63
2017-12-03T13:56:58.161Z,10.37
2017-12-03T13:59:26.547Z,14.93
2017-12-03T14:01:55.580Z,10.30
2017-12-03T14:04:23.938Z,7.50
2017-12-03T14:06:52.246Z,8.87
2017-12-03T14:09:20.608Z,11.93
2017-12-03T14:11:48.922Z,13.03
2017-12-03T14:14:17.242Z,21.03
2017-12-03T14:16:45.603Z,9.77
2017-12-03T14:19:13.956Z,11.40
2017-12-03T14:21:42.262Z,3.60
2017-12-03T14:24:11.442Z,7.80
2017-12-03T14:26:39.832Z,10.02
2017-12-03T14:29:09.808Z,7.93
2017-12-03T14:31:38.718Z,5.20
2017-12-03T14:34:07.028Z,11.70
2017-12-03T14:36:35.395Z,9.00
2017-12-03T14:39:03.726Z,10.30
2017-12-03T14:41:32.079Z,8.20
2017-12-03T14:44:01.154Z,17.33
2017-12-03T14:46:29.487Z,13.80
2017-12-03T14:48:57.790Z,12.30
2017-12-03T14:51:26.112Z,16.00
2017-12-03T14:53:54.440Z,15.80
2017-12-03T14:56:22.767Z,28.73
2017-12-03T14:58:51.126Z,23.60
2017-12-03T15:01:19.427Z,19.13
2017-12-03T15:03:48.512Z,46.90
2017-12-03T15:06:16.827Z,27.27
2017-12-03T15:08:47.102Z,27.00
2017-12-03T15:11:15.418Z,68.33
2017-12-03T15:13:43.737Z,33.00
2017-12-03T15:16:12.068Z,17.43
2017-12-03T15:18:40.403Z,102.57
2017-12-03T15:21:08.720Z,47.67
2017-12-03T15:23:37.178Z,87.50
2017-12-03T15:26:05.494Z,19.50
2017-12-03T15:28:33.956Z,71.30
2017-12-03T15:31:02.278Z,53.27
2017-12-03T15:33:31.461Z,95.43
2017-12-03T15:35:59.778Z,27.70
2017-12-03T15:38:28.862Z,46.47
2017-12-03T15:40:57.952Z,12.00
2017-12-03T15:43:26.402Z,40.70
2017-12-03T15:45:54.764Z,24.43
2017-12-03T15:48:23.191Z,18.10
2017-12-03T15:50:51.499Z,19.43
2017-12-03T15:53:20.599Z,20.37
2017-12-03T15:55:49.678Z,20.33
2017-12-03T15:58:18.786Z,23.27
2017-12-03T16:00:48.101Z,25.23
2017-12-03T16:03:17.178Z,22.57
2017-12-03T16:05:46.273Z,22.20
2017-12-03T16:08:15.349Z,24.17
2017-12-03T16:10:43.672Z,40.77
2017-12-03T16:13:12.801Z,17.23
2017-12-03T16:15:41.132Z,19.63
2017-12-03T16:18:10.192Z,37.33
2017-12-03T16:20:38.507Z,21.40
2017-12-03T16:23:06.827Z,18.03
2017-12-03T16:25:35.959Z,17.90
2017-12-03T16:28:04.285Z,16.30
2017-12-03T16:30:32.600Z,16.67
2017-12-03T16:33:00.926Z,20.40
2017-12-03T16:35:29.955Z,25.83
2017-12-03T16:37:59.036Z,21.93
2017-12-03T16:40:28.112Z,17.10
2017-12-03T16:42:56.688Z,19.67
2017-12-03T16:45:25.042Z,16.87
2017-12-03T16:47:53.371Z,30.70
2017-12-03T16:50:23.222Z,22.67
2017-12-03T16:52:52.328Z,20.80
2017-12-03T16:55:20.644Z,16.60
2017-12-03T16:57:49.062Z,19.33
2017-12-03T17:00:17.375Z,16.20
2017-12-03T17:02:45.673Z,7.43
2017-12-03T17:05:13.987Z,13.17
2017-12-03T17:07:42.297Z,9.87
2017-12-03T17:10:10.645Z,11.90
2017-12-03T17:12:38.972Z,10.33
2017-12-03T17:15:08.063Z,13.50
2017-12-03T17:17:37.184Z,18.50
2017-12-03T17:20:05.525Z,10.13
2017-12-03T17:22:33.880Z,9.33
2017-12-03T17:25:02.177Z,15.27
2017-12-03T17:27:30.517Z,9.30
2017-12-03T17:29:58.823Z,10.33
2017-12-03T17:32:27.190Z,11.60
2017-12-03T17:34:55.507Z,10.83
2017-12-03T17:37:24.573Z,12.77
2017-12-03T17:39:52.889Z,8.40
2017-12-03T17:42:21.984Z,9.53
2017-12-03T17:44:51.801Z,6.93
2017-12-03T17:47:20.143Z,10.50
2017-12-03T17:49:48.465Z,7.97
2017-12-03T17:52:17.709Z,9.00
2017-12-03T17:54:46.054Z,13.90
2017-12-03T17:57:15.149Z,8.20
2017-12-03T17:59:44.287Z,11.50
2017-12-03T18:02:12.603Z,12.77
2017-12-03T18:04:40.936Z,14.53
2017-12-03T18:07:09.253Z,13.30
2017-12-03T18:09:37.583Z,17.77
2017-12-03T18:12:05.891Z,15.63
2017-12-03T18:14:34.191Z,10.90
2017-12-03T18:17:02.602Z,16.03
2017-12-03T18:19:30.942Z,10.60
2017-12-03T18:21:59.260Z,16.40
2017-12-03T18:24:27.560Z,17.10
2017-12-03T18:26:55.863Z,19.27
2017-12-03T18:29:24.195Z,13.73
2017-12-03T18:31:52.498Z,22.30
2017-12-03T18:34:20.851Z,18.20
2017-12-03T18:36:49.171Z,16.87
2017-12-03T18:39:17.511Z,18.90
2017-12-03T18:41:45.848Z,17.60
2017-12-03T18:44:14.202Z,25.63
2017-12-03T18:46:42.535Z,15.47
2017-12-03T18:49:10.822Z,23.50
2017-12-03T18:51:39.153Z,19.37
2017-12-03T18:54:07.473Z,16.93
2017-12-03T18:56:35.995Z,18.37
2017-12-03T18:59:04.309Z,12.70
2017-12-03T19:01:32.652Z,20.13
2017-12-03T19:04:00.971Z,17.10
2017-12-03T19:06:30.059Z,21.67
2017-12-03T19:08:58.385Z,23.57
2017-12-03T19:11:26.713Z,18.53
2017-12-03T19:13:55.177Z,17.23
2017-12-03T19:16:23.529Z,17.60
2017-12-03T19:18:51.857Z,28.90
2017-12-03T19:21:20.167Z,26.13
2017-12-03T19:23:49.280Z,19.00
2017-12-03T19:26:18.540Z,19.63
2017-12-03T19:28:47.138Z,25.50
2017-12-03T19:31:15.479Z,21.93
2017-12-03T19:33:43.850Z,21.00
2017-12-03T19:36:12.153Z,19.73
2017-12-03T19:38:40.626Z,20.07
2017-12-03T19:41:08.956Z,26.60
2017-12-03T19:43:37.296Z,20.17
2017-12-03T19:46:05.583Z,28.67
2017-12-03T19:48:33.911Z,26.07
2017-12-03T19:51:02.976Z,28.80
2017-12-03T19:53:32.395Z,30.10
2017-12-03T19:56:01.517Z,29.40
2017-12-03T19:58:29.832Z,22.00
2017-12-03T20:00:59.123Z,18.50
2017-12-03T20:03:27.438Z,19.83
2017-12-03T20:05:56.021Z,23.30
2017-12-03T20:08:24.366Z,31.93
2017-12-03T20:10:52.683Z,32.30
2017-12-03T20:13:21.011Z,28.50
2017-12-03T20:15:49.460Z,27.90
2017-12-03T20:18:19.982Z,34.20
2017-12-03T20:20:48.817Z,22.13
2017-12-03T20:23:17.886Z,24.30
2017-12-03T20:25:46.244Z,20.07
2017-12-03T20:28:14.551Z,26.17
2017-12-03T20:30:42.853Z,18.03
2017-12-03T20:33:11.910Z,19.43
2017-12-03T20:35:40.229Z,13.70
2017-12-03T20:38:09.322Z,21.00
2017-12-03T20:40:38.396Z,23.90
2017-12-03T20:43:07.462Z,16.13
2017-12-03T20:45:35.794Z,17.93
2017-12-03T20:48:04.117Z,20.50
2017-12-03T20:50:32.469Z,16.50
2017-12-03T20:53:01.561Z,26.27
2017-12-03T20:55:30.670Z,18.77
2017-12-03T20:57:59.905Z,17.13
2017-12-03T21:00:28.295Z,18.90
2017-12-03T21:02:56.609Z,18.80
2017-12-03T21:05:24.933Z,38.53
2017-12-03T21:07:53.233Z,29.13
2017-12-03T21:10:21.554Z,30.37
2017-12-03T21:12:49.865Z,28.80
2017-12-03T21:15:18.989Z,27.93
2017-12-03T21:17:47.318Z,25.00
2017-12-03T21:20:17.176Z,26.00
2017-12-03T21:22:45.655Z,28.47
2017-12-03T21:25:13.948Z,21.47
2017-12-03T21:27:42.324Z,27.17
2017-12-03T21:30:10.645Z,30.27
2017-12-03T21:32:38.958Z,16.63
2017-12-03T21:35:08.066Z,16.10
2017-12-03T21:37:37.157Z,18.17
2017-12-03T21:40:06.300Z,25.97
2017-12-03T21:42:34.603Z,20.67
2017-12-03T21:45:02.934Z,21.30
2017-12-03T21:47:31.232Z,27.17
2017-12-03T21:49:59.526Z,24.63
2017-12-03T21:52:27.832Z,29.03
2017-12-03T21:54:56.144Z,13.00
2017-12-03T21:57:25.222Z,25.70
2017-12-03T21:59:54.276Z,24.47
2017-12-03T22:02:22.600Z,19.70
2017-12-03T22:04:51.710Z,17.47
2017-12-03T22:07:20.795Z,24.40
2017-12-03T22:09:49.092Z,27.10
2017-12-03T22:12:18.195Z,21.13
2017-12-03T22:14:47.280Z,32.07
2017-12-03T22:17:16.356Z,25.43
2017-12-03T22:19:45.448Z,25.50
2017-12-03T22:22:13.758Z,25.23
2017-12-03T22:24:42.100Z,30.80
2017-12-03T22:27:10.523Z,22.10
2017-12-03T22:29:38.843Z,29.80
2017-12-03T22:32:07.154Z,24.77
2017-12-03T22:34:35.530Z,29.07
2017-12-03T22:37:03.863Z,27.23
2017-12-03T22:39:32.948Z,29.33
2017-12-03T22:42:01.518Z,29.67
2017-12-03T22:44:29.833Z,30.27
2017-12-03T22:46:58.890Z,30.30
2017-12-03T22:49:27.202Z,25.00
2017-12-03T22:51:56.296Z,25.70
2017-12-03T22:54:25.414Z,30.90
2017-12-03T22:56:53.732Z,26.93
2017-12-03T22:59:22.055Z,23.57
2017-12-03T23:01:51.146Z,36.63
2017-12-03T23:04:19.466Z,28.53
2017-12-03T23:06:47.768Z,19.70
2017-12-03T23:09:16.074Z,22.47
2017-12-03T23:11:44.420Z,37.17
2017-12-03T23:14:12.736Z,25.63
2017-12-03T23:16:41.046Z,26.90
2017-12-03T23:19:10.120Z,24.63
2017-12-03T23:21:38.427Z,27.30
2017-12-03T23:24:07.505Z,20.57
2017-12-03T23:26:36.594Z,32.20
2017-12-03T23:29:04.926Z,22.03
2017-12-03T23:31:33.256Z,29.87
2017-12-03T23:34:02.328Z,27.23
2017-12-03T23:36:30.636Z,23.73
2017-12-03T23:38:58.948Z,23.83
2017-12-03T23:41:28.016Z,13.57
2017-12-03T23:43:56.340Z,14.13
2017-12-03T23:46:24.664Z,20.67
2017-12-03T23:48:52.984Z,16.67
2017-12-03T23:51:22.053Z,20.70
2017-12-03T23:53:50.425Z,25.23
2017-12-03T23:56:18.766Z,19.77
2017-12-03T23:58:47.084Z,19.73
